| Date | Time | Temp. (oF) | Dew Point (oF) | Rel. Hum. (%) | Press. (in.) | Wind Dir. | Wind Speed (mph) | Hourly Rainfall (in.) |
|
|---|---|---|---|---|---|---|---|---|---|
| 1 | 11/25 | 00:00 | 18 | 2 | 49 | 29.92 | SW | 3 | 0.00 |
| 2 | 11/24 | 23:00 | 19 | 3 | 50 | 29.89 | SW | 3 | 0.00 |
| 3 | 11/24 | 22:00 | 20 | 3 | 48 | 29.87 | WNW | 11 | 0.00 |
| 4 | 11/24 | 21:00 | 21 | 3 | 46 | 29.83 | NW | 7 | 0.00 |
| 5 | 11/24 | 20:00 | 22 | 6 | 50 | 29.78 | NW | 10 | 0.00 |
| 6 | 11/24 | 19:00 | 26 | 8 | 47 | 29.72 | WNW | 19 | 0.00 |
| 7 | 11/24 | 18:00 | 30 | 16 | 57 | 29.65 | WNW | 11 | 0.00 |
| 8 | 11/24 | 17:00 | 32 | 21 | 65 | 29.55 | WNW | 21 | 0.00 |
| 9 | 11/24 | 16:00 | 37 | 29 | 74 | 29.46 | W | 15 | 0.00 |
| 10 | 11/24 | 15:00 | 40 | 34 | 82 | 29.39 | W | 11 | 0.00 |
| 11 | 11/24 | 14:00 | 40 | 37 | 92 | 29.32 | WSW | 8 | 0.02 |
| 12 | 11/24 | 13:00 | 48 | 33 | 58 | 29.24 | SSW | 9 | 0.00 |
| 13 | 11/24 | 12:00 | 46 | 34 | 64 | 29.25 | S | 14 | 0.00 |
| 14 | 11/24 | 11:00 | 42 | 33 | 72 | 29.30 | WSW | 8 | 0.00 |
| 15 | 11/24 | 10:00 | 41 | 33 | 75 | 29.31 | SSW | 14 | 0.00 |
| 16 | 11/24 | 09:00 | 37 | 33 | 86 | 29.31 | S | 10 | 0.00 |
| 17 | 11/24 | 08:00 | 34 | 33 | 98 | 29.31 | S | 6 | 0.00 |
| 18 | 11/24 | 07:00 | 34 | 33 | 99 | 29.30 | S | 9 | 0.00 |
| 19 | 11/24 | 06:00 | 35 | 34 | 97 | 29.28 | SSW | 5 | 0.00 |
| 20 | 11/24 | 05:00 | 34 | 33 | 98 | 29.28 | SSW | 9 | 0.00 |
| 21 | 11/24 | 04:00 | 34 | 33 | 98 | 29.28 | SSW | 12 | 0.00 |
| 22 | 11/24 | 03:00 | 33 | 32 | 100 | 29.30 | SSW | 12 | 0.00 |
| 23 | 11/24 | 02:00 | 33 | 32 | 100 | 29.33 | S | 15 | 0.00 |
| 24 | 11/24 | 01:00 | 31 | 31 | 100 | 29.36 | SE | 10 | 0.00 |